sensor_id;sensor_type;location;lat;lon;timestamp;pressure;altitude;pressure_sealevel;temperature;humidity
55914;BME280;58179;48.776;9.124;2023-04-26T00:00:41;97380.50;;;6.18;100.00
55914;BME280;58179;48.776;9.124;2023-04-26T00:03:09;97391.00;;;6.18;100.00
55914;BME280;58179;48.776;9.124;2023-04-26T00:05:35;97388.59;;;6.16;100.00
55914;BME280;58179;48.776;9.124;2023-04-26T00:08:02;97384.81;;;6.12;100.00
55914;BME280;58179;48.776;9.124;2023-04-26T00:10:29;97384.91;;;6.06;100.00
55914;BME280;58179;48.776;9.124;2023-04-26T00:12:54;97379.44;;;6.07;100.00
55914;BME280;58179;48.776;9.124;2023-04-26T00:15:20;97387.41;;;6.01;100.00
55914;BME280;58179;48.776;9.124;2023-04-26T00:17:46;97384.19;;;5.99;100.00
55914;BME280;58179;48.776;9.124;2023-04-26T00:20:14;97382.94;;;6.01;100.00
55914;BME280;58179;48.776;9.124;2023-04-26T00:22:40;97377.13;;;5.99;100.00
55914;BME280;58179;48.776;9.124;2023-04-26T00:25:07;97379.75;;;5.99;100.00
55914;BME280;58179;48.776;9.124;2023-04-26T00:27:33;97377.13;;;5.99;100.00
55914;BME280;58179;48.776;9.124;2023-04-26T00:29:59;97383.38;;;5.98;100.00
55914;BME280;58179;48.776;9.124;2023-04-26T00:32:25;97383.59;;;5.97;100.00
55914;BME280;58179;48.776;9.124;2023-04-26T00:34:51;97385.63;;;5.95;100.00
55914;BME280;58179;48.776;9.124;2023-04-26T00:37:18;97376.19;;;5.94;100.00
55914;BME280;58179;48.776;9.124;2023-04-26T00:39:44;97377.19;;;5.93;100.00
55914;BME280;58179;48.776;9.124;2023-04-26T00:42:10;97378.22;;;5.92;100.00
55914;BME280;58179;48.776;9.124;2023-04-26T00:44:36;97385.50;;;5.90;100.00
55914;BME280;58179;48.776;9.124;2023-04-26T00:47:04;97380.91;;;5.85;100.00
55914;BME280;58179;48.776;9.124;2023-04-26T00:49:30;97387.97;;;5.84;100.00
55914;BME280;58179;48.776;9.124;2023-04-26T00:51:57;97386.78;;;5.80;100.00
55914;BME280;58179;48.776;9.124;2023-04-26T00:54:24;97387.59;;;5.81;100.00
55914;BME280;58179;48.776;9.124;2023-04-26T00:56:50;97393.22;;;5.84;100.00
55914;BME280;58179;48.776;9.124;2023-04-26T00:59:18;97386.16;;;5.85;100.00
55914;BME280;58179;48.776;9.124;2023-04-26T01:01:44;97385.34;;;5.84;100.00
55914;BME280;58179;48.776;9.124;2023-04-26T01:04:11;97391.63;;;5.83;100.00
55914;BME280;58179;48.776;9.124;2023-04-26T01:06:38;97388.41;;;5.81;100.00
55914;BME280;58179;48.776;9.124;2023-04-26T01:09:06;97398.09;;;5.81;100.00
55914;BME280;58179;48.776;9.124;2023-04-26T01:11:38;97391.84;;;5.82;100.00
55914;BME280;58179;48.776;9.124;2023-04-26T01:14:05;97392.25;;;5.79;100.00
55914;BME280;58179;48.776;9.124;2023-04-26T01:16:32;97398.31;;;5.79;100.00
55914;BME280;58179;48.776;9.124;2023-04-26T01:19:06;97394.53;;;5.75;100.00
55914;BME280;58179;48.776;9.124;2023-04-26T01:21:34;97389.97;;;5.71;100.00
55914;BME280;58179;48.776;9.124;2023-04-26T01:24:01;97384.53;;;5.66;100.00
55914;BME280;58179;48.776;9.124;2023-04-26T01:26:27;97377.94;;;5.63;100.00
55914;BME280;58179;48.776;9.124;2023-04-26T01:28:53;97382.59;;;5.61;100.00
55914;BME280;58179;48.776;9.124;2023-04-26T01:31:19;97370.25;;;5.62;100.00
55914;BME280;58179;48.776;9.124;2023-04-26T01:33:45;97382.81;;;5.60;100.00
55914;BME280;58179;48.776;9.124;2023-04-26T01:36:11;97385.28;;;5.55;100.00
55914;BME280;58179;48.776;9.124;2023-04-26T01:38:37;97386.53;;;5.52;100.00
55914;BME280;58179;48.776;9.124;2023-04-26T01:41:04;97382.94;;;5.47;100.00
55914;BME280;58179;48.776;9.124;2023-04-26T01:43:30;97386.00;;;5.43;100.00
55914;BME280;58179;48.776;9.124;2023-04-26T01:45:56;97385.84;;;5.38;100.00
55914;BME280;58179;48.776;9.124;2023-04-26T01:48:22;97377.84;;;5.33;100.00
55914;BME280;58179;48.776;9.124;2023-04-26T01:50:48;97385.34;;;5.30;100.00
55914;BME280;58179;48.776;9.124;2023-04-26T01:53:14;97389.44;;;5.26;100.00
55914;BME280;58179;48.776;9.124;2023-04-26T01:55:40;97392.47;;;5.23;100.00
55914;BME280;58179;48.776;9.124;2023-04-26T01:58:07;97385.41;;;5.23;100.00
55914;BME280;58179;48.776;9.124;2023-04-26T02:00:33;97393.94;;;5.19;100.00
55914;BME280;58179;48.776;9.124;2023-04-26T02:02:59;97384.06;;;5.14;100.00
55914;BME280;58179;48.776;9.124;2023-04-26T02:05:25;97382.91;;;5.10;100.00
55914;BME280;58179;48.776;9.124;2023-04-26T02:07:51;97370.63;;;5.04;100.00
55914;BME280;58179;48.776;9.124;2023-04-26T02:10:17;97375.31;;;5.02;100.00
55914;BME280;58179;48.776;9.124;2023-04-26T02:12:43;97382.19;;;5.03;100.00
55914;BME280;58179;48.776;9.124;2023-04-26T02:15:11;97375.59;;;4.94;100.00
55914;BME280;58179;48.776;9.124;2023-04-26T02:17:37;97369.22;;;4.83;100.00
55914;BME280;58179;48.776;9.124;2023-04-26T02:20:05;97371.91;;;4.77;100.00
55914;BME280;58179;48.776;9.124;2023-04-26T02:22:35;97371.91;;;4.77;100.00
55914;BME280;58179;48.776;9.124;2023-04-26T02:25:01;97379.97;;;4.75;100.00
55914;BME280;58179;48.776;9.124;2023-04-26T02:27:26;97379.00;;;4.70;100.00
55914;BME280;58179;48.776;9.124;2023-04-26T02:29:52;97380.22;;;4.67;100.00
55914;BME280;58179;48.776;9.124;2023-04-26T02:32:20;97375.22;;;4.65;100.00
55914;BME280;58179;48.776;9.124;2023-04-26T02:34:45;97377.63;;;4.67;100.00
55914;BME280;58179;48.776;9.124;2023-04-26T02:37:11;97382.09;;;4.60;100.00
55914;BME280;58179;48.776;9.124;2023-04-26T02:39:37;97380.50;;;4.59;100.00
55914;BME280;58179;48.776;9.124;2023-04-26T02:42:07;97382.69;;;4.62;100.00
55914;BME280;58179;48.776;9.124;2023-04-26T02:44:33;97386.53;;;4.66;100.00
55914;BME280;58179;48.776;9.124;2023-04-26T02:46:59;97389.28;;;4.71;100.00
55914;BME280;58179;48.776;9.124;2023-04-26T02:49:26;97384.41;;;4.75;100.00
55914;BME280;58179;48.776;9.124;2023-04-26T02:51:52;97379.34;;;4.80;100.00
55914;BME280;58179;48.776;9.124;2023-04-26T02:54:18;97383.94;;;4.84;100.00
55914;BME280;58179;48.776;9.124;2023-04-26T02:56:44;97381.25;;;4.91;100.00
55914;BME280;58179;48.776;9.124;2023-04-26T02:59:10;97377.03;;;4.90;100.00
55914;BME280;58179;48.776;9.124;2023-04-26T03:01:36;97379.03;;;4.94;100.00
55914;BME280;58179;48.776;9.124;2023-04-26T03:04:02;97382.66;;;4.93;100.00
55914;BME280;58179;48.776;9.124;2023-04-26T03:06:29;97384.69;;;4.91;100.00
55914;BME280;58179;48.776;9.124;2023-04-26T03:08:55;97385.50;;;4.92;100.00
55914;BME280;58179;48.776;9.124;2023-04-26T03:11:21;97379.59;;;4.96;100.00
55914;BME280;58179;48.776;9.124;2023-04-26T03:13:47;97386.50;;;4.91;100.00
55914;BME280;58179;48.776;9.124;2023-04-26T03:16:12;97389.34;;;4.89;100.00
55914;BME280;58179;48.776;9.124;2023-04-26T03:18:38;97382.50;;;4.88;100.00
55914;BME280;58179;48.776;9.124;2023-04-26T03:21:04;97390.59;;;4.87;100.00
55914;BME280;58179;48.776;9.124;2023-04-26T03:23:32;97390.19;;;4.83;100.00
55914;BME280;58179;48.776;9.124;2023-04-26T03:25:58;97392.22;;;4.81;100.00
55914;BME280;58179;48.776;9.124;2023-04-26T03:28:24;97393.69;;;4.77;100.00
55914;BME280;58179;48.776;9.124;2023-04-26T03:30:50;97386.88;;;4.70;100.00
55914;BME280;58179;48.776;9.124;2023-04-26T03:33:16;97390.97;;;4.65;100.00
55914;BME280;58179;48.776;9.124;2023-04-26T03:35:42;97388.75;;;4.62;100.00
55914;BME280;58179;48.776;9.124;2023-04-26T03:38:08;97386.19;;;4.56;100.00
55914;BME280;58179;48.776;9.124;2023-04-26T03:40:35;97390.22;;;4.52;100.00
55914;BME280;58179;48.776;9.124;2023-04-26T03:43:01;97389.84;;;4.48;100.00
55914;BME280;58179;48.776;9.124;2023-04-26T03:45:27;97377.38;;;4.44;100.00
55914;BME280;58179;48.776;9.124;2023-04-26T03:47:58;97385.88;;;4.39;100.00
55914;BME280;58179;48.776;9.124;2023-04-26T03:50:24;97387.91;;;4.37;100.00
55914;BME280;58179;48.776;9.124;2023-04-26T03:52:51;97381.38;;;4.15;100.00
55914;BME280;58179;48.776;9.124;2023-04-26T03:55:17;97381.63;;;4.07;100.00
55914;BME280;58179;48.776;9.124;2023-04-26T03:57:44;97384.44;;;4.12;100.00
55914;BME280;58179;48.776;9.124;2023-04-26T04:00:12;97394.78;;;3.94;100.00
55914;BME280;58179;48.776;9.124;2023-04-26T04:02:39;97393.22;;;3.86;100.00
55914;BME280;58179;48.776;9.124;2023-04-26T04:05:05;97390.00;;;3.84;100.00
55914;BME280;58179;48.776;9.124;2023-04-26T04:07:32;97392.38;;;3.92;100.00
55914;BME280;58179;48.776;9.124;2023-04-26T04:09:59;97394.47;;;3.77;100.00
55914;BME280;58179;48.776;9.124;2023-04-26T04:12:25;97395.06;;;3.79;100.00
55914;BME280;58179;48.776;9.124;2023-04-26T04:14:53;97395.50;;;3.76;100.00
55914;BME280;58179;48.776;9.124;2023-04-26T04:17:19;97385.66;;;3.65;100.00
55914;BME280;58179;48.776;9.124;2023-04-26T04:19:44;97388.06;;;3.66;100.00
55914;BME280;58179;48.776;9.124;2023-04-26T04:22:10;97385.28;;;3.48;100.00
55914;BME280;58179;48.776;9.124;2023-04-26T04:24:36;97385.50;;;3.46;100.00
55914;BME280;58179;48.776;9.124;2023-04-26T04:27:03;97388.53;;;3.50;100.00
55914;BME280;58179;48.776;9.124;2023-04-26T04:29:29;97391.31;;;3.55;100.00
55914;BME280;58179;48.776;9.124;2023-04-26T04:31:57;97400.78;;;3.49;100.00
55914;BME280;58179;48.776;9.124;2023-04-26T04:34:22;97391.97;;;3.44;100.00
55914;BME280;58179;48.776;9.124;2023-04-26T04:36:49;97394.38;;;3.39;100.00
55914;BME280;58179;48.776;9.124;2023-04-26T04:39:17;97406.84;;;3.43;100.00
55914;BME280;58179;48.776;9.124;2023-04-26T04:41:43;97402.81;;;3.47;100.00
55914;BME280;58179;48.776;9.124;2023-04-26T04:44:13;97395.97;;;3.46;100.00
55914;BME280;58179;48.776;9.124;2023-04-26T04:46:40;97397.56;;;3.47;100.00
55914;BME280;58179;48.776;9.124;2023-04-26T04:49:07;97401.19;;;3.60;100.00
55914;BME280;58179;48.776;9.124;2023-04-26T04:51:37;97406.00;;;3.56;100.00
55914;BME280;58179;48.776;9.124;2023-04-26T04:54:10;97407.00;;;3.55;100.00
55914;BME280;58179;48.776;9.124;2023-04-26T04:56:36;97409.22;;;3.58;100.00
55914;BME280;58179;48.776;9.124;2023-04-26T04:59:02;97400.75;;;3.63;100.00
55914;BME280;58179;48.776;9.124;2023-04-26T05:01:30;97414.84;;;3.68;100.00
55914;BME280;58179;48.776;9.124;2023-04-26T05:03:57;97413.38;;;3.79;100.00
55914;BME280;58179;48.776;9.124;2023-04-26T05:06:25;97420.84;;;3.82;100.00
55914;BME280;58179;48.776;9.124;2023-04-26T05:08:52;97419.03;;;3.82;100.00
55914;BME280;58179;48.776;9.124;2023-04-26T05:11:18;97424.63;;;3.86;100.00
55914;BME280;58179;48.776;9.124;2023-04-26T05:13:44;97431.09;;;3.90;100.00
55914;BME280;58179;48.776;9.124;2023-04-26T05:16:10;97427.63;;;3.96;100.00
55914;BME280;58179;48.776;9.124;2023-04-26T05:18:36;97434.44;;;4.04;100.00
55914;BME280;58179;48.776;9.124;2023-04-26T05:21:03;97426.94;;;4.14;100.00
55914;BME280;58179;48.776;9.124;2023-04-26T05:23:30;97434.13;;;4.25;100.00
55914;BME280;58179;48.776;9.124;2023-04-26T05:25:56;97427.25;;;4.31;100.00
55914;BME280;58179;48.776;9.124;2023-04-26T05:28:25;97435.06;;;4.37;100.00
55914;BME280;58179;48.776;9.124;2023-04-26T05:30:51;97442.91;;;4.44;100.00
55914;BME280;58179;48.776;9.124;2023-04-26T05:33:17;97443.69;;;4.51;100.00
55914;BME280;58179;48.776;9.124;2023-04-26T05:35:43;97448.28;;;4.55;100.00
55914;BME280;58179;48.776;9.124;2023-04-26T05:38:09;97441.03;;;4.57;100.00
55914;BME280;58179;48.776;9.124;2023-04-26T05:40:36;97446.03;;;4.59;100.00
55914;BME280;58179;48.776;9.124;2023-04-26T05:43:02;97449.66;;;4.64;100.00
55914;BME280;58179;48.776;9.124;2023-04-26T05:45:28;97447.78;;;4.72;100.00
55914;BME280;58179;48.776;9.124;2023-04-26T05:47:54;97452.16;;;4.78;100.00
55914;BME280;58179;48.776;9.124;2023-04-26T05:50:20;97453.13;;;4.83;100.00
55914;BME280;58179;48.776;9.124;2023-04-26T05:52:46;97457.75;;;4.88;100.00
55914;BME280;58179;48.776;9.124;2023-04-26T05:55:12;97459.53;;;4.94;100.00
55914;BME280;58179;48.776;9.124;2023-04-26T05:57:39;97456.47;;;4.97;100.00
55914;BME280;58179;48.776;9.124;2023-04-26T06:00:07;97455.03;;;5.01;100.00
55914;BME280;58179;48.776;9.124;2023-04-26T06:02:36;97452.78;;;5.04;100.00
55914;BME280;58179;48.776;9.124;2023-04-26T06:05:02;97451.34;;;5.09;100.00
55914;BME280;58179;48.776;9.124;2023-04-26T06:07:29;97450.13;;;5.11;100.00
55914;BME280;58179;48.776;9.124;2023-04-26T06:09:55;97454.72;;;5.16;100.00
55914;BME280;58179;48.776;9.124;2023-04-26T06:12:21;97455.06;;;5.19;100.00
55914;BME280;58179;48.776;9.124;2023-04-26T06:14:49;97453.63;;;5.23;100.00
55914;BME280;58179;48.776;9.124;2023-04-26T06:17:15;97457.66;;;5.26;100.00
55914;BME280;58179;48.776;9.124;2023-04-26T06:19:41;97456.41;;;5.28;100.00
55914;BME280;58179;48.776;9.124;2023-04-26T06:22:07;97466.50;;;5.31;100.00
55914;BME280;58179;48.776;9.124;2023-04-26T06:24:33;97465.69;;;5.31;100.00
55914;BME280;58179;48.776;9.124;2023-04-26T06:26:58;97469.91;;;5.32;100.00
55914;BME280;58179;48.776;9.124;2023-04-26T06:29:24;97466.84;;;5.35;100.00
55914;BME280;58179;48.776;9.124;2023-04-26T06:31:52;97470.66;;;5.39;100.00
55914;BME280;58179;48.776;9.124;2023-04-26T06:34:17;97475.25;;;5.43;100.00
55914;BME280;58179;48.776;9.124;2023-04-26T06:36:44;97479.88;;;5.48;100.00
55914;BME280;58179;48.776;9.124;2023-04-26T06:39:10;97480.03;;;5.53;100.00
55914;BME280;58179;48.776;9.124;2023-04-26T06:41:37;97482.22;;;5.56;100.00
55914;BME280;58179;48.776;9.124;2023-04-26T06:44:03;97478.13;;;5.60;100.00
55914;BME280;58179;48.776;9.124;2023-04-26T06:46:29;97476.91;;;5.63;100.00
55914;BME280;58179;48.776;9.124;2023-04-26T06:48:56;97477.63;;;5.70;100.00
55914;BME280;58179;48.776;9.124;2023-04-26T06:51:22;97472.16;;;5.71;100.00
55914;BME280;58179;48.776;9.124;2023-04-26T06:53:48;97466.25;;;5.76;100.00
55914;BME280;58179;48.776;9.124;2023-04-26T06:56:14;97474.28;;;5.81;100.00
55914;BME280;58179;48.776;9.124;2023-04-26T06:58:57;97472.19;;;5.90;100.00
55914;BME280;58179;48.776;9.124;2023-04-26T07:01:23;97470.88;;;5.99;100.00
55914;BME280;58179;48.776;9.124;2023-04-26T07:03:49;97470.59;;;6.07;100.00
55914;BME280;58179;48.776;9.124;2023-04-26T07:06:16;97464.47;;;6.13;100.00
55914;BME280;58179;48.776;9.124;2023-04-26T07:08:42;97470.81;;;6.24;100.00
55914;BME280;58179;48.776;9.124;2023-04-26T07:11:09;97465.91;;;6.27;100.00
55914;BME280;58179;48.776;9.124;2023-04-26T07:13:35;97461.94;;;6.36;100.00
55914;BME280;58179;48.776;9.124;2023-04-26T07:16:00;97455.22;;;6.40;100.00
55914;BME280;58179;48.776;9.124;2023-04-26T07:18:26;97462.56;;;6.50;100.00
55914;BME280;58179;48.776;9.124;2023-04-26T07:20:52;97453.34;;;6.59;100.00
55914;BME280;58179;48.776;9.124;2023-04-26T07:23:19;97452.34;;;6.72;100.00
55914;BME280;58179;48.776;9.124;2023-04-26T07:25:45;97452.03;;;6.80;100.00
55914;BME280;58179;48.776;9.124;2023-04-26T07:28:11;97447.03;;;6.90;100.00
55914;BME280;58179;48.776;9.124;2023-04-26T07:30:37;97453.09;;;7.02;100.00
55914;BME280;58179;48.776;9.124;2023-04-26T07:33:03;97449.69;;;7.13;100.00
55914;BME280;58179;48.776;9.124;2023-04-26T07:35:29;97449.25;;;7.28;100.00
55914;BME280;58179;48.776;9.124;2023-04-26T07:37:55;97449.47;;;7.38;100.00
55914;BME280;58179;48.776;9.124;2023-04-26T07:40:22;97447.44;;;7.52;100.00
55914;BME280;58179;48.776;9.124;2023-04-26T07:42:51;97446.38;;;7.64;100.00
55914;BME280;58179;48.776;9.124;2023-04-26T07:45:17;97450.03;;;7.87;100.00
55914;BME280;58179;48.776;9.124;2023-04-26T07:47:44;97447.22;;;8.05;100.00
55914;BME280;58179;48.776;9.124;2023-04-26T07:50:10;97446.50;;;8.21;100.00
55914;BME280;58179;48.776;9.124;2023-04-26T07:52:36;97445.78;;;8.37;100.00
55914;BME280;58179;48.776;9.124;2023-04-26T07:55:02;97444.16;;;8.48;100.00
55914;BME280;58179;48.776;9.124;2023-04-26T07:57:30;97453.66;;;8.49;100.00
55914;BME280;58179;48.776;9.124;2023-04-26T07:59:56;97452.59;;;8.50;100.00
55914;BME280;58179;48.776;9.124;2023-04-26T08:02:22;97443.44;;;8.52;100.00
55914;BME280;58179;48.776;9.124;2023-04-26T08:04:49;97449.31;;;8.43;100.00
55914;BME280;58179;48.776;9.124;2023-04-26T08:07:19;97452.66;;;8.38;100.00
55914;BME280;58179;48.776;9.124;2023-04-26T08:09:46;97448.66;;;8.36;100.00
55914;BME280;58179;48.776;9.124;2023-04-26T08:12:13;97447.16;;;8.40;100.00
55914;BME280;58179;48.776;9.124;2023-04-26T08:14:41;97456.53;;;8.47;100.00
55914;BME280;58179;48.776;9.124;2023-04-26T08:17:07;97454.41;;;8.61;100.00
55914;BME280;58179;48.776;9.124;2023-04-26T08:19:36;97465.16;;;8.71;100.00
55914;BME280;58179;48.776;9.124;2023-04-26T08:22:03;97454.53;;;8.83;100.00
55914;BME280;58179;48.776;9.124;2023-04-26T08:24:30;97460.41;;;8.73;100.00
55914;BME280;58179;48.776;9.124;2023-04-26T08:26:56;97465.47;;;8.75;100.00
55914;BME280;58179;48.776;9.124;2023-04-26T08:29:24;97459.97;;;8.76;100.00
55914;BME280;58179;48.776;9.124;2023-04-26T08:31:53;97458.13;;;8.77;100.00
55914;BME280;58179;48.776;9.124;2023-04-26T08:34:20;97457.25;;;8.88;100.00
55914;BME280;58179;48.776;9.124;2023-04-26T08:36:46;97457.88;;;8.95;100.00
55914;BME280;58179;48.776;9.124;2023-04-26T08:39:12;97453.94;;;8.36;100.00
55914;BME280;58179;48.776;9.124;2023-04-26T08:41:53;97467.75;;;8.54;100.00
55914;BME280;58179;48.776;9.124;2023-04-26T08:44:23;97453.03;;;8.59;100.00
55914;BME280;58179;48.776;9.124;2023-04-26T08:46:58;97453.94;;;8.64;100.00
55914;BME280;58179;48.776;9.124;2023-04-26T08:49:38;97462.25;;;8.73;100.00
55914;BME280;58179;48.776;9.124;2023-04-26T08:52:08;97467.66;;;8.78;100.00
55914;BME280;58179;48.776;9.124;2023-04-26T08:54:36;97468.59;;;8.88;100.00
55914;BME280;58179;48.776;9.124;2023-04-26T08:57:03;97467.09;;;8.92;100.00
55914;BME280;58179;48.776;9.124;2023-04-26T08:59:29;97460.53;;;8.95;100.00
55914;BME280;58179;48.776;9.124;2023-04-26T09:01:58;97465.69;;;9.02;100.00
55914;BME280;58179;48.776;9.124;2023-04-26T09:04:25;97469.34;;;9.17;100.00
55914;BME280;58179;48.776;9.124;2023-04-26T09:06:52;97466.31;;;9.25;100.00
55914;BME280;58179;48.776;9.124;2023-04-26T09:09:23;97462.00;;;9.36;100.00
55914;BME280;58179;48.776;9.124;2023-04-26T09:11:55;97464.16;;;9.39;100.00
55914;BME280;58179;48.776;9.124;2023-04-26T09:14:23;97461.84;;;9.26;100.00
55914;BME280;58179;48.776;9.124;2023-04-26T09:16:49;97462.22;;;9.18;100.00
55914;BME280;58179;48.776;9.124;2023-04-26T09:19:16;97466.63;;;9.12;100.00
55914;BME280;58179;48.776;9.124;2023-04-26T09:21:44;97468.16;;;9.08;100.00
55914;BME280;58179;48.776;9.124;2023-04-26T09:24:10;97467.16;;;8.81;100.00
55914;BME280;58179;48.776;9.124;2023-04-26T09:26:36;97463.56;;;8.70;100.00
55914;BME280;58179;48.776;9.124;2023-04-26T09:29:14;97464.84;;;8.84;100.00
55914;BME280;58179;48.776;9.124;2023-04-26T09:31:43;97454.88;;;8.86;100.00
55914;BME280;58179;48.776;9.124;2023-04-26T09:34:10;97452.47;;;9.02;100.00
55914;BME280;58179;48.776;9.124;2023-04-26T09:36:49;97444.25;;;9.15;100.00
55914;BME280;58179;48.776;9.124;2023-04-26T09:39:29;97442.72;;;9.36;100.00
55914;BME280;58179;48.776;9.124;2023-04-26T09:41:58;97442.19;;;9.55;100.00
55914;BME280;58179;48.776;9.124;2023-04-26T09:44:25;97438.88;;;9.82;100.00
55914;BME280;58179;48.776;9.124;2023-04-26T09:47:02;97441.03;;;9.85;100.00
55914;BME280;58179;48.776;9.124;2023-04-26T09:49:31;97443.19;;;10.09;100.00
55914;BME280;58179;48.776;9.124;2023-04-26T09:52:04;97440.34;;;10.38;100.00
55914;BME280;58179;48.776;9.124;2023-04-26T09:54:47;97446.88;;;10.79;100.00
55914;BME280;58179;48.776;9.124;2023-04-26T09:57:15;97441.41;;;10.91;100.00
55914;BME280;58179;48.776;9.124;2023-04-26T09:59:44;97445.19;;;10.95;100.00
55914;BME280;58179;48.776;9.124;2023-04-26T10:02:15;97446.59;;;11.07;100.00
55914;BME280;58179;48.776;9.124;2023-04-26T10:04:44;97448.81;;;11.20;100.00
55914;BME280;58179;48.776;9.124;2023-04-26T10:07:17;97446.91;;;11.48;100.00
55914;BME280;58179;48.776;9.124;2023-04-26T10:09:43;97439.97;;;11.79;100.00
55914;BME280;58179;48.776;9.124;2023-04-26T10:12:10;97434.88;;;12.24;100.00
55914;BME280;58179;48.776;9.124;2023-04-26T10:14:37;97425.72;;;12.77;100.00
55914;BME280;58179;48.776;9.124;2023-04-26T10:17:04;97423.31;;;12.81;100.00
55914;BME280;58179;48.776;9.124;2023-04-26T10:19:31;97420.41;;;12.88;100.00
55914;BME280;58179;48.776;9.124;2023-04-26T10:22:03;97427.09;;;13.00;100.00
55914;BME280;58179;48.776;9.124;2023-04-26T10:24:31;97422.53;;;13.01;100.00
55914;BME280;58179;48.776;9.124;2023-04-26T10:26:58;97426.25;;;12.69;100.00
55914;BME280;58179;48.776;9.124;2023-04-26T10:30:07;97423.78;;;12.43;100.00
55914;BME280;58179;48.776;9.124;2023-04-26T10:33:16;97422.94;;;12.27;100.00
55914;BME280;58179;48.776;9.124;2023-04-26T10:36:07;97429.28;;;12.26;100.00
55914;BME280;58179;48.776;9.124;2023-04-26T10:38:35;97429.22;;;12.06;100.00
55914;BME280;58179;48.776;9.124;2023-04-26T10:41:30;97425.19;;;11.93;100.00
55914;BME280;58179;48.776;9.124;2023-04-26T10:43:57;97428.34;;;11.90;100.00
55914;BME280;58179;48.776;9.124;2023-04-26T10:46:38;97425.16;;;11.88;100.00
55914;BME280;58179;48.776;9.124;2023-04-26T10:49:17;97426.25;;;11.87;100.00
55914;BME280;58179;48.776;9.124;2023-04-26T10:52:08;97425.44;;;11.86;100.00
55914;BME280;58179;48.776;9.124;2023-04-26T10:54:56;97424.00;;;11.74;100.00
55914;BME280;58179;48.776;9.124;2023-04-26T10:57:48;97419.09;;;11.50;100.00
55914;BME280;58179;48.776;9.124;2023-04-26T11:00:31;97416.81;;;11.64;100.00
55914;BME280;58179;48.776;9.124;2023-04-26T11:03:05;97415.47;;;11.67;100.00
55914;BME280;58179;48.776;9.124;2023-04-26T11:05:40;97419.84;;;11.83;100.00
55914;BME280;58179;48.776;9.124;2023-04-26T11:08:16;97416.22;;;12.04;100.00
55914;BME280;58179;48.776;9.124;2023-04-26T11:10:45;97411.56;;;12.36;100.00
55914;BME280;58179;48.776;9.124;2023-04-26T11:13:18;97414.03;;;12.73;100.00
55914;BME280;58179;48.776;9.124;2023-04-26T11:15:45;97411.66;;;13.07;100.00
55914;BME280;58179;48.776;9.124;2023-04-26T11:18:11;97397.59;;;13.17;100.00
55914;BME280;58179;48.776;9.124;2023-04-26T11:20:37;97401.28;;;13.51;100.00
55914;BME280;58179;48.776;9.124;2023-04-26T11:23:03;97391.38;;;13.72;100.00
55914;BME280;58179;48.776;9.124;2023-04-26T11:25:32;97390.50;;;13.92;100.00
55914;BME280;58179;48.776;9.124;2023-04-26T11:27:59;97378.03;;;13.87;100.00
55914;BME280;58179;48.776;9.124;2023-04-26T11:30:29;97374.31;;;13.88;100.00
55914;BME280;58179;48.776;9.124;2023-04-26T11:32:56;97374.50;;;14.02;100.00
55914;BME280;58179;48.776;9.124;2023-04-26T11:35:23;97372.50;;;14.38;100.00
55914;BME280;58179;48.776;9.124;2023-04-26T11:37:51;97370.09;;;14.81;100.00
55914;BME280;58179;48.776;9.124;2023-04-26T11:40:17;97373.28;;;15.11;100.00
55914;BME280;58179;48.776;9.124;2023-04-26T11:42:44;97356.03;;;15.33;100.00
55914;BME280;58179;48.776;9.124;2023-04-26T11:45:10;97356.78;;;15.38;100.00
55914;BME280;58179;48.776;9.124;2023-04-26T11:47:38;97359.53;;;15.28;100.00
55914;BME280;58179;48.776;9.124;2023-04-26T11:50:06;97358.19;;;15.31;100.00
55914;BME280;58179;48.776;9.124;2023-04-26T11:52:34;97346.31;;;15.18;100.00
55914;BME280;58179;48.776;9.124;2023-04-26T11:55:01;97345.19;;;14.95;100.00
55914;BME280;58179;48.776;9.124;2023-04-26T11:57:30;97333.00;;;14.84;100.00
55914;BME280;58179;48.776;9.124;2023-04-26T12:00:11;97335.25;;;14.67;100.00
55914;BME280;58179;48.776;9.124;2023-04-26T12:02:43;97330.63;;;14.49;100.00
55914;BME280;58179;48.776;9.124;2023-04-26T12:05:09;97340.75;;;14.47;100.00
55914;BME280;58179;48.776;9.124;2023-04-26T12:07:36;97337.97;;;13.53;100.00
55914;BME280;58179;48.776;9.124;2023-04-26T12:10:18;97333.44;;;13.54;100.00
55914;BME280;58179;48.776;9.124;2023-04-26T12:12:47;97332.38;;;13.60;100.00
55914;BME280;58179;48.776;9.124;2023-04-26T12:15:14;97341.59;;;13.78;100.00
55914;BME280;58179;48.776;9.124;2023-04-26T12:17:54;97339.31;;;14.15;100.00
55914;BME280;58179;48.776;9.124;2023-04-26T12:20:30;97337.00;;;14.48;100.00
55914;BME280;58179;48.776;9.124;2023-04-26T12:22:58;97343.06;;;14.92;100.00
55914;BME280;58179;48.776;9.124;2023-04-26T12:25:25;97335.09;;;15.45;100.00
55914;BME280;58179;48.776;9.124;2023-04-26T12:27:51;97333.97;;;15.99;100.00
55914;BME280;58179;48.776;9.124;2023-04-26T12:30:17;97334.19;;;16.58;100.00
55914;BME280;58179;48.776;9.124;2023-04-26T12:32:44;97329.38;;;16.93;100.00
55914;BME280;58179;48.776;9.124;2023-04-26T12:35:10;97332.31;;;17.10;100.00
55914;BME280;58179;48.776;9.124;2023-04-26T12:37:36;97316.56;;;17.09;100.00
55914;BME280;58179;48.776;9.124;2023-04-26T12:40:03;97321.38;;;16.60;100.00
55914;BME280;58179;48.776;9.124;2023-04-26T12:42:29;97321.84;;;16.06;100.00
55914;BME280;58179;48.776;9.124;2023-04-26T12:44:55;97314.47;;;15.98;100.00
55914;BME280;58179;48.776;9.124;2023-04-26T12:47:21;97310.16;;;16.58;100.00
55914;BME280;58179;48.776;9.124;2023-04-26T12:49:48;97297.66;;;17.60;100.00
55914;BME280;58179;48.776;9.124;2023-04-26T12:52:15;97295.22;;;18.85;100.00
55914;BME280;58179;48.776;9.124;2023-04-26T12:54:41;97292.81;;;19.76;100.00
55914;BME280;58179;48.776;9.124;2023-04-26T12:57:09;97303.00;;;20.14;100.00
55914;BME280;58179;48.776;9.124;2023-04-26T12:59:35;97299.19;;;20.06;100.00
55914;BME280;58179;48.776;9.124;2023-04-26T13:02:01;97299.97;;;20.15;100.00